Observation data for Saint Lawrence on 01/13/2021      Previous  Date  Next       Current Mesonet Observations  Soil Data  Daily Summary Page  Observations in Plain Language
KST1 130600Z 20008KT 01/M02 A3024 RMK A01 T00101021  RH  080%=      5-min Rain = 0
KST1 130605Z 20008KT 01/M02 A3024 RMK A01 T00091022  RH  080%=      5-min Rain = 0
KST1 130610Z 21008KT 01/M02 A3024 RMK A01 T00071023  RH  081%=      5-min Rain = 0
KST1 130615Z 21007KT 00/M03 A3024 RMK A01 T00031025  RH  082%=      5-min Rain = 0
KST1 130620Z 21007KT 00/03 A3024 RMK A01 T00-00-25  RH  084%=      5-min Rain = 0
KST1 130625Z 21007KT M00/M03 A3023 RMK A01 T10011025  RH  085%=      5-min Rain = 0
KST1 130630Z 21006KT M00/M03 A3023 RMK A01 T10011026  RH  085%=      5-min Rain = 0
KST1 130635Z 21006KT M00/M03 A3023 RMK A01 T10041027  RH  085%=      5-min Rain = 0
KST1 130640Z 21005KT M01/M03 A3024 RMK A01 T10071029  RH  086%=      5-min Rain = 0
KST1 130645Z 21005KT M01/M03 A3024 RMK A01 T10111031  RH  087%=      5-min Rain = 0
KST1 130650Z 22005KT M01/M03 A3023 RMK A01 T10131032  RH  088%=      5-min Rain = 0
KST1 130655Z 22006KT M01/M03 A3023 RMK A01 T10141032  RH  089%=      5-min Rain = 0
KST1 130700Z 21006KT M01/M03 A3023 RMK A01 T10121029  RH  089%=      5-min Rain = 0
KST1 130705Z 21007KT M01/M03 A3022 RMK A01 T10081027  RH  088%=      5-min Rain = 0
KST1 130710Z 20006KT M01/M03 A3022 RMK A01 T10081029  RH  087%=      5-min Rain = 0
KST1 130715Z 20007KT M01/M03 A3022 RMK A01 T10091029  RH  087%=      5-min Rain = 0
KST1 130720Z 20007KT M01/M03 A3022 RMK A01 T10071027  RH  087%=      5-min Rain = 0
KST1 130725Z 20007KT M01/M03 A3022 RMK A01 T10051027  RH  086%=      5-min Rain = 0
KST1 130730Z 20007KT M01/M03 A3022 RMK A01 T10061027  RH  086%=      5-min Rain = 0
KST1 130735Z 21007KT M01/M03 A3022 RMK A01 T10061028  RH  086%=      5-min Rain = 0
KST1 130740Z 21007KT M01/M03 A3022 RMK A01 T10121034  RH  086%=      5-min Rain = 0
KST1 130745Z 21007KT M02/M03 A3022 RMK A01 T10161034  RH  088%=      5-min Rain = 0
KST1 130750Z 21007KT M02/M03 A3022 RMK A01 T10161033  RH  089%=      5-min Rain = 0
KST1 130755Z 21007KT M02/M03 A3022 RMK A01 T10151031  RH  089%=      5-min Rain = 0
KST1 130800Z 21006KT M01/M03 A3022 RMK A01 T10121030  RH  089%=      5-min Rain = 0
KST1 130805Z 21006KT M02/M03 A3022 RMK A01 T10151034  RH  088%=      5-min Rain = 0
KST1 130810Z 22006KT M02/M04 A3022 RMK A01 T10181035  RH  089%=      5-min Rain = 0
KST1 130815Z 22007KT M02/M03 A3022 RMK A01 T10171033  RH  090%=      5-min Rain = 0
KST1 130820Z 22007KT M02/M03 A3022 RMK A01 T10171034  RH  090%=      5-min Rain = 0
KST1 130825Z 22007KT M02/M03 A3022 RMK A01 T10171033  RH  090%=      5-min Rain = 0
KST1 130830Z 22007KT M02/M03 A3022 RMK A01 T10171034  RH  090%=      5-min Rain = 0
KST1 130835Z 22007KT M02/M04 A3022 RMK A01 T10191035  RH  090%=      5-min Rain = 0
KST1 130840Z 22007KT M02/M04 A3022 RMK A01 T10201035  RH  090%=      5-min Rain = 0
KST1 130845Z 22006KT M02/M04 A3021 RMK A01 T10201036  RH  090%=      5-min Rain = 0
KST1 130850Z 22006KT M02/M04 A3021 RMK A01 T10221038  RH  090%=      5-min Rain = 0
KST1 130855Z 22006KT M02/M04 A3022 RMK A01 T10241040  RH  090%=      5-min Rain = 0
KST1 130900Z 23006KT M03/M04 A3022 RMK A01 T10271042  RH  091%=      5-min Rain = 0
KST1 130905Z 23006KT M03/M04 A3022 RMK A01 T10281042  RH  091%=      5-min Rain = 0
KST1 130910Z 24006KT M03/M04 A3022 RMK A01 T10291042  RH  091%=      5-min Rain = 0
KST1 130915Z 24006KT M03/M04 A3022 RMK A01 T10291042  RH  092%=      5-min Rain = 0
KST1 130920Z 24006KT M03/M04 A3022 RMK A01 T10301042  RH  092%=      5-min Rain = 0
KST1 130925Z 24007KT M03/M04 A3022 RMK A01 T10281041  RH  092%=      5-min Rain = 0
KST1 130930Z 24007KT M03/M04 A3022 RMK A01 T10271040  RH  092%=      5-min Rain = 0
KST1 130935Z 24007KT M03/M04 A3022 RMK A01 T10281041  RH  092%=      5-min Rain = 0
KST1 130940Z 23007KT M03/M04 A3022 RMK A01 T10291042  RH  091%=      5-min Rain = 0
KST1 130945Z 23008KT M03/M04 A3022 RMK A01 T10271040  RH  092%=      5-min Rain = 0
KST1 130950Z 24007KT M03/M04 A3022 RMK A01 T10271041  RH  091%=      5-min Rain = 0
KST1 130955Z 24007KT M03/M04 A3022 RMK A01 T10281041  RH  091%=      5-min Rain = 0
KST1 131000Z 24008KT M03/M04 A3022 RMK A01 T10291042  RH  091%=      5-min Rain = 0
KST1 131005Z 24008KT M03/M04 A3022 RMK A01 T10291042  RH  092%=      5-min Rain = 0
KST1 131010Z 24008KT M03/M04 A3021 RMK A01 T10281041  RH  092%=      5-min Rain = 0
KST1 131015Z 24008KT M03/M04 A3021 RMK A01 T10281041  RH  091%=      5-min Rain = 0
KST1 131020Z 23009KT M03/M04 A3021 RMK A01 T10281041  RH  091%=      5-min Rain = 0
KST1 131025Z 23009KT M03/M04 A3021 RMK A01 T10281042  RH  091%=      5-min Rain = 0
KST1 131030Z 23008KT M03/M04 A3021 RMK A01 T10291043  RH  091%=      5-min Rain = 0
KST1 131035Z 23008KT M03/M04 A3021 RMK A01 T10301044  RH  091%=      5-min Rain = 0
KST1 131040Z 23008KT M03/M04 A3021 RMK A01 T10311044  RH  091%=      5-min Rain = 0
KST1 131045Z 23008KT M03/M05 A302 RMK A01 T10321046  RH  091%=      5-min Rain = 0
KST1 131050Z 23009KT M03/M04 A302 RMK A01 T10311044  RH  092%=      5-min Rain = 0
KST1 131055Z 23009KT M03/M04 A302 RMK A01 T10301043  RH  092%=      5-min Rain = 0
KST1 131100Z 23008KT M03/M04 A302 RMK A01 T10311044  RH  092%=      5-min Rain = 0
KST1 131105Z 23008KT M03/M05 A302 RMK A01 T10321045  RH  092%=      5-min Rain = 0
KST1 131110Z 22008KT M03/M05 A302 RMK A01 T10331046  RH  092%=      5-min Rain = 0
KST1 131115Z 22007KT M04/M05 A302 RMK A01 T10351049  RH  092%=      5-min Rain = 0
KST1 131120Z 22008KT M04/M05 A302 RMK A01 T10361048  RH  092%=      5-min Rain = 0
KST1 131125Z 22007KT M04/M05 A302 RMK A01 T10351047  RH  092%=      5-min Rain = 0
KST1 131130Z 23007KT M04/M05 A302 RMK A01 T10351047  RH  092%=      5-min Rain = 0
KST1 131135Z 22008KT M04/M05 A302 RMK A01 T10361048  RH  092%=      5-min Rain = 0
KST1 131140Z 22008KT M04/M05 A302 RMK A01 T10371049  RH  092%=      5-min Rain = 0
KST1 131145Z 22009KT M04/M05 A302 RMK A01 T10371048  RH  093%=      5-min Rain = 0
KST1 131150Z 22009KT M04/M05 A302 RMK A01 T10351047  RH  092%=      5-min Rain = 0
KST1 131155Z 22009KT M04/M05 A302 RMK A01 T10361048  RH  092%=      5-min Rain = 0
KST1 131200Z 21008KT M03/M04 A3019 RMK A01 T10321044  RH  093%=      5-min Rain = 0
KST1 131205Z 21008KT M03/M04 A3019 RMK A01 T10281041  RH  092%=      5-min Rain = 0
KST1 131210Z 20008KT M03/M04 A3019 RMK A01 T10261040  RH  091%=      5-min Rain = 0
KST1 131215Z 20008KT M03/M04 A3019 RMK A01 T10251041  RH  090%=      5-min Rain = 0
KST1 131220Z 21008KT M03/M04 A3019 RMK A01 T10271044  RH  089%=      5-min Rain = 0
KST1 131225Z 21008KT M03/M04 A3019 RMK A01 T10281044  RH  090%=      5-min Rain = 0
KST1 131230Z 21008KT M03/M05 A3019 RMK A01 T10291046  RH  089%=      5-min Rain = 0
KST1 131235Z 21009KT M03/M05 A3018 RMK A01 T10291045  RH  090%=      5-min Rain = 0
KST1 131240Z 20008KT M03/M04 A3018 RMK A01 T10251042  RH  089%=      5-min Rain = 0
KST1 131245Z 20008KT M02/M04 A3018 RMK A01 T10231042  RH  088%=      5-min Rain = 0
KST1 131250Z 20009KT M02/M04 A3017 RMK A01 T10221041  RH  088%=      5-min Rain = 0
KST1 131255Z 20009KT M02/M04 A3017 RMK A01 T10201040  RH  087%=      5-min Rain = 0
KST1 131300Z 20009KT M02/M04 A3017 RMK A01 T10191040  RH  087%=      5-min Rain = 0
KST1 131305Z 21009KT M02/M04 A3016 RMK A01 T10201042  RH  086%=      5-min Rain = 0
KST1 131310Z 21010KT M02/M05 A3016 RMK A01 T10221045  RH  086%=      5-min Rain = 0
KST1 131315Z 22010KT M03/M05 A3016 RMK A01 T10251047  RH  086%=      5-min Rain = 0
KST1 131320Z 22010KT M03/M05 A3016 RMK A01 T10281048  RH  087%=      5-min Rain = 0
KST1 131325Z 23010KT M03/M05 A3016 RMK A01 T10291049  RH  087%=      5-min Rain = 0
KST1 131330Z 22010KT M03/M05 A3016 RMK A01 T10291050  RH  087%=      5-min Rain = 0
KST1 131335Z 22010KT M03/M05 A3016 RMK A01 T10291050  RH  086%=      5-min Rain = 0
KST1 131340Z 22010KT M03/M05 A3016 RMK A01 T10281051  RH  085%=      5-min Rain = 0
KST1 131345Z 22010KT M03/M05 A3016 RMK A01 T10271051  RH  084%=      5-min Rain = 0
KST1 131350Z 22010KT M03/M05 A3016 RMK A01 T10261052  RH  083%=      5-min Rain = 0
KST1 131355Z 22010KT M03/M05 A3016 RMK A01 T10251051  RH  083%=      5-min Rain = 0
KST1 131400Z 23010KT M03/M05 A3016 RMK A01 T10251052  RH  083%=      5-min Rain = 0
KST1 131405Z 23010KT M03/M05 A3016 RMK A01 T10251052  RH  083%=      5-min Rain = 0
KST1 131410Z 24010KT M02/M05 A3016 RMK A01 T10231050  RH  083%=      5-min Rain = 0
KST1 131415Z 24010KT M02/M05 A3016 RMK A01 T10211049  RH  082%=      5-min Rain = 0
KST1 131420Z 24011KT M02/M05 A3016 RMK A01 T10191047  RH  082%=      5-min Rain = 0
KST1 131425Z 24011KT M02/M05 A3016 RMK A01 T10171046  RH  082%=      5-min Rain = 0
KST1 131430Z 24010KT M02/M05 A3016 RMK A01 T10151045  RH  081%=      5-min Rain = 0
KST1 131435Z 24010KT M01/M04 A3016 RMK A01 T10121043  RH  080%=      5-min Rain = 0
KST1 131440Z 24009KT M01/M04 A3016 RMK A01 T10091041  RH  079%=      5-min Rain = 0
KST1 131445Z 24009KT M01/M04 A3016 RMK A01 T10061040  RH  079%=      5-min Rain = 0
KST1 131450Z 24009KT M00/M04 A3016 RMK A01 T10031038  RH  078%=      5-min Rain = 0
KST1 131455Z 25010KT 00/M04 A3016 RMK A01 T00031036  RH  076%=      5-min Rain = 0
KST1 131500Z 25010KT 01/M03 A3015 RMK A01 T00081034  RH  075%=      5-min Rain = 0
KST1 131505Z 25011KT 01/M03 A3015 RMK A01 T00121034  RH  072%=      5-min Rain = 0
KST1 131510Z 25011KT 01/M03 A3016 RMK A01 T00141032  RH  072%=      5-min Rain = 0
KST1 131515Z 25010KT 01/M03 A3016 RMK A01 T00141030  RH  073%=      5-min Rain = 0
KST1 131520Z 25011KT 02/M03 A3016 RMK A01 T00151029  RH  073%=      5-min Rain = 0
KST1 131525Z 24011KT 02/M03 A3016 RMK A01 T00161028  RH  073%=      5-min Rain = 0
KST1 131530Z 25012KT 02/M03 A3015 RMK A01 T00191028  RH  072%=      5-min Rain = 0
KST1 131535Z 25013KT 02/M03 A3016 RMK A01 T00211026  RH  072%=      5-min Rain = 0
KST1 131540Z 25013KT 02/M03 A3016 RMK A01 T00241025  RH  071%=      5-min Rain = 0
KST1 131545Z 24012KT 03/M02 A3016 RMK A01 T00261022  RH  071%=      5-min Rain = 0
KST1 131550Z 25012KT 03/M02 A3016 RMK A01 T00291021  RH  070%=      5-min Rain = 0
KST1 131555Z 24014KT 03/M02 A3016 RMK A01 T00311021  RH  069%=      5-min Rain = 0
KST1 131600Z 24013KT 03/M02 A3017 RMK A01 T00341020  RH  069%=      5-min Rain = 0
KST1 131605Z 24013KT 04/M02 A3017 RMK A01 T00371019  RH  068%=      5-min Rain = 0
KST1 131610Z 25013KT 04/M02 A3017 RMK A01 T00401015  RH  068%=      5-min Rain = 0
KST1 131615Z 24013KT 04/M02 A3017 RMK A01 T00441015  RH  066%=      5-min Rain = 0
KST1 131620Z 24013KT 05/M01 A3017 RMK A01 T00471014  RH  065%=      5-min Rain = 0
KST1 131625Z 25012KT 05/M01 A3017 RMK A01 T00501014  RH  064%=      5-min Rain = 0
KST1 131630Z 25012KT 05/M01 A3017 RMK A01 T00531011  RH  064%=      5-min Rain = 0
KST1 131635Z 25014KT 06/M01 A3017 RMK A01 T00561013  RH  062%=      5-min Rain = 0
KST1 131640Z 25014KT 06/M01 A3017 RMK A01 T00601013  RH  060%=      5-min Rain = 0
KST1 131645Z 25015KT 06/M01 A3017 RMK A01 T00631010  RH  060%=      5-min Rain = 0
KST1 131650Z 25014KT 07/M01 A3017 RMK A01 T00671006  RH  060%=      5-min Rain = 0
KST1 131655Z 25013KT 07/M00 A3016 RMK A01 T00711002  RH  060%=      5-min Rain = 0
KST1 131700Z 25015KT 07/M01 A3016 RMK A01 T00731007  RH  058%=      5-min Rain = 0
KST1 131705Z 25015KT 08/M01 A3016 RMK A01 T00771010  RH  055%=      5-min Rain = 0
KST1 131710Z 25013KT 08/M00 A3016 RMK A01 T00801004  RH  056%=      5-min Rain = 0
KST1 131715Z 25014KT 08/M00 A3015 RMK A01 T00811004  RH  056%=      5-min Rain = 0
KST1 131720Z 24013KT 08/M00 A3015 RMK A01 T00821001  RH  056%=      5-min Rain = 0
KST1 131725Z 24013KT 08/M01 A3014 RMK A01 T00841010  RH  052%=      5-min Rain = 0
KST1 131730Z 23013KT 08/00 A3014 RMK A01 T00840000  RH  056%=      5-min Rain = 0
KST1 131735Z 23012KT 09/01 A3013 RMK A01 T00870007  RH  058%=      5-min Rain = 0
KST1 131740Z 23011KT 09/01 A3013 RMK A01 T00890005  RH  056%=      5-min Rain = 0
KST1 131745Z 23012KT 09/00 A3013 RMK A01 T00910001  RH  054%=      5-min Rain = 0
KST1 131750Z 23012KT 10/01 A3013 RMK A01 T00950011  RH  056%=      5-min Rain = 0
KST1 131755Z 23012KT 10/01 A3012 RMK A01 T00960010  RH  056%=      5-min Rain = 0
KST1 131800Z 25016G21KT 10/00 A3012 RMK A01 T01010004  RH  052%=      5-min Rain = 0
KST1 131805Z 25015G20KT 11/01 A3011 RMK A01 T01050008  RH  052%=      5-min Rain = 0
KST1 131810Z 25018G23KT 11/00 A3011 RMK A01 T01060004  RH  050%=      5-min Rain = 0
KST1 131815Z 26018G23KT 11/00 A3011 RMK A01 T01080003  RH  049%=      5-min Rain = 0
KST1 131820Z 26022G27KT 11/00 A3011 RMK A01 T01110000  RH  047%=      5-min Rain = 0
KST1 131825Z 26021G26KT 11/00 A3011 RMK A01 T011100-0  RH  047%=      5-min Rain = 0
KST1 131830Z 25021G27KT 11/00 A301 RMK A01 T01120000  RH  047%=      5-min Rain = 0
KST1 131835Z 25020KT 11/01 A301 RMK A01 T01130005  RH  048%=      5-min Rain = 0
KST1 131840Z 26020G25KT 11/00 A3009 RMK A01 T01140004  RH  047%=      5-min Rain = 0
KST1 131845Z 26021KT 12/00 A3009 RMK A01 T01150003  RH  047%=      5-min Rain = 0
KST1 131850Z 26021G28KT 12/00 A3008 RMK A01 T01170004  RH  046%=      5-min Rain = 0
KST1 131855Z 27020KT 12/01 A3008 RMK A01 T01180006  RH  047%=      5-min Rain = 0
KST1 131900Z 26021G27KT 12/01 A3008 RMK A01 T01200008  RH  047%=      5-min Rain = 0
KST1 131905Z 25022G27KT 12/01 A3007 RMK A01 T01200005  RH  046%=      5-min Rain = 0
KST1 131910Z 25021KT 12/00 A3007 RMK A01 T01210004  RH  045%=      5-min Rain = 0
KST1 131915Z 25020KT 12/01 A3007 RMK A01 T01220008  RH  046%=      5-min Rain = 0
KST1 131920Z 25018G24KT 13/01 A3006 RMK A01 T01250013  RH  047%=      5-min Rain = 0
KST1 131925Z 24020KT 13/01 A3006 RMK A01 T01250006  RH  045%=      5-min Rain = 0
KST1 131930Z 25018G23KT 12/01 A3006 RMK A01 T01240008  RH  045%=      5-min Rain = 0
KST1 131935Z 25017KT 13/01 A3005 RMK A01 T01260010  RH  046%=      5-min Rain = 0
KST1 131940Z 25016KT 13/02 A3005 RMK A01 T01290016  RH  047%=      5-min Rain = 0
KST1 131945Z 24019KT 13/01 A3005 RMK A01 T01290007  RH  044%=      5-min Rain = 0
KST1 131950Z 25019KT 13/01 A3004 RMK A01 T01290006  RH  043%=      5-min Rain = 0
KST1 131955Z 25018KT 13/01 A3004 RMK A01 T01300008  RH  044%=      5-min Rain = 0
KST1 132000Z 25017KT 13/01 A3004 RMK A01 T01320009  RH  043%=      5-min Rain = 0
KST1 132005Z 24017G22KT 13/01 A3003 RMK A01 T01340008  RH  043%=      5-min Rain = 0
KST1 132010Z 24016G21KT 14/01 A3003 RMK A01 T01360008  RH  042%=      5-min Rain = 0
KST1 132015Z 23017KT 14/01 A3003 RMK A01 T01380008  RH  042%=      5-min Rain = 0
KST1 132020Z 23018KT 14/01 A3002 RMK A01 T01410014  RH  042%=      5-min Rain = 0
KST1 132025Z 24018G23KT 14/00 A3003 RMK A01 T01420004  RH  039%=      5-min Rain = 0
KST1 132030Z 25018G23KT 14/00 A3003 RMK A01 T01440002  RH  038%=      5-min Rain = 0.01
KST1 132035Z 25018KT 15/M01 A3002 RMK A01 T01451008  RH  035%=      5-min Rain = 0
KST1 132040Z 25019G24KT 15/M01 A3002 RMK A01 T01451012  RH  034%=      5-min Rain = 0
KST1 132045Z 24019KT 15/M01 A3002 RMK A01 T01471009  RH  035%=      5-min Rain = 0
KST1 132050Z 25018KT 15/M01 A3002 RMK A01 T01481005  RH  035%=      5-min Rain = 0
KST1 132055Z 25017G24KT 15/M01 A3001 RMK A01 T01501005  RH  035%=      5-min Rain = 0
KST1 132100Z 24019KT 15/M01 A3001 RMK A01 T01511010  RH  034%=      5-min Rain = 0
KST1 132105Z 25018KT 15/M01 A3001 RMK A01 T01521013  RH  032%=      5-min Rain = 0
KST1 132110Z 25015G21KT 15/M01 A3001 RMK A01 T01541007  RH  034%=      5-min Rain = 0
KST1 132115Z 25018G23KT 15/M02 A3001 RMK A01 T01541018  RH  031%=      5-min Rain = 0
KST1 132120Z 24019KT 15/M02 A3001 RMK A01 T01541018  RH  031%=      5-min Rain = 0
KST1 132125Z 24018KT 15/M01 A30 RMK A01 T01541012  RH  032%=      5-min Rain = 0
KST1 132130Z 25020KT 15/M02 A30 RMK A01 T01541017  RH  031%=      5-min Rain = 0
KST1 132135Z 25018KT 15/M02 A30 RMK A01 T01541018  RH  031%=      5-min Rain = 0
KST1 132140Z 23017G22KT 16/M01 A30 RMK A01 T01551009  RH  033%=      5-min Rain = 0
KST1 132145Z 23018G23KT 16/M01 A2999 RMK A01 T01551007  RH  033%=      5-min Rain = 0
KST1 132150Z 24020G25KT 16/M02 A2999 RMK A01 T01561019  RH  030%=      5-min Rain = 0
KST1 132155Z 24018G23KT 16/M02 A2999 RMK A01 T01561020  RH  030%=      5-min Rain = 0
KST1 132200Z 24018G23KT 16/M02 A2999 RMK A01 T01561019  RH  030%=      5-min Rain = 0
KST1 132205Z 23018KT 16/M02 A2998 RMK A01 T01561017  RH  031%=      5-min Rain = 0
KST1 132210Z 24016KT 16/M01 A2999 RMK A01 T01561014  RH  031%=      5-min Rain = 0
KST1 132215Z 24016KT 16/M02 A2999 RMK A01 T01571020  RH  030%=      5-min Rain = 0
KST1 132220Z 24016G22KT 16/M02 A30 RMK A01 T01551022  RH  030%=      5-min Rain = 0
KST1 132225Z 24015KT 16/M02 A2999 RMK A01 T01561020  RH  030%=      5-min Rain = 0
KST1 132230Z 24014KT 16/M02 A2999 RMK A01 T01561018  RH  031%=      5-min Rain = 0
KST1 132235Z 23015KT 16/M02 A2999 RMK A01 T01561018  RH  031%=      5-min Rain = 0
KST1 132240Z 23015KT 16/M02 A2998 RMK A01 T01551021  RH  030%=      5-min Rain = 0
KST1 132245Z 23015KT 15/M02 A2998 RMK A01 T01541017  RH  031%=      5-min Rain = 0
KST1 132250Z 23014KT 15/M02 A2997 RMK A01 T01531015  RH  032%=      5-min Rain = 0
KST1 132255Z 23013KT 15/M01 A2997 RMK A01 T01521011  RH  033%=      5-min Rain = 0
KST1 132300Z 22013KT 15/M01 A2997 RMK A01 T01521013  RH  033%=      5-min Rain = 0
KST1 132305Z 23013KT 15/M01 A2997 RMK A01 T01491010  RH  034%=      5-min Rain = 0
KST1 132310Z 23013KT 15/M01 A2997 RMK A01 T01491012  RH  033%=      5-min Rain = 0
KST1 132315Z 23011KT 15/M01 A2997 RMK A01 T01471010  RH  035%=      5-min Rain = 0
KST1 132320Z 23010KT 14/M00 A2997 RMK A01 T01431003  RH  037%=      5-min Rain = 0
KST1 132325Z 23010KT 14/00 A2997 RMK A01 T01390001  RH  039%=      5-min Rain = 0
KST1 132330Z 23010KT 14/00 A2997 RMK A01 T01360001  RH  040%=      5-min Rain = 0
KST1 132335Z 23009KT 13/00 A2997 RMK A01 T01330003  RH  042%=      5-min Rain = 0
KST1 132340Z 23009KT 13/00 A2997 RMK A01 T01280004  RH  043%=      5-min Rain = 0
KST1 132345Z 22009KT 13/00 A2997 RMK A01 T01250003  RH  044%=      5-min Rain = 0
KST1 132350Z 22009KT 12/00 A2997 RMK A01 T01180004  RH  046%=      5-min Rain = 0
KST1 132355Z 22008KT 11/00 A2997 RMK A01 T01100004  RH  049%=      5-min Rain = 0
KST1 140000Z 22009KT 11/00 A2997 RMK A01 T01070001  RH  049%=      5-min Rain = 0
KST1 140005Z 22009KT 10/00 A2997 RMK A01 T01000001  RH  051%=      5-min Rain = 0
KST1 140010Z 22009KT 10/00 A2997 RMK A01 T00950001  RH  053%=      5-min Rain = 0
KST1 140015Z 22010KT 09/00 A2996 RMK A01 T00900001  RH  054%=      5-min Rain = 0
KST1 140020Z 22010KT 09/M00 A2996 RMK A01 T00851001  RH  055%=      5-min Rain = 0
KST1 140025Z 22010KT 09/M00 A2996 RMK A01 T00861002  RH  055%=      5-min Rain = 0
KST1 140030Z 22010KT 08/M00 A2996 RMK A01 T00841003  RH  055%=      5-min Rain = 0
KST1 140035Z 22010KT 08/M00 A2996 RMK A01 T00811003  RH  056%=      5-min Rain = 0
KST1 140040Z 22011KT 08/M00 A2996 RMK A01 T00821004  RH  055%=      5-min Rain = 0
KST1 140045Z 22010KT 08/M01 A2995 RMK A01 T00811005  RH  055%=      5-min Rain = 0
KST1 140050Z 21011KT 08/M01 A2995 RMK A01 T00831007  RH  054%=      5-min Rain = 0
KST1 140055Z 21011KT 09/M01 A2995 RMK A01 T00931013  RH  048%=      5-min Rain = 0
KST1 140100Z 21011KT 09/M01 A2995 RMK A01 T00931013  RH  048%=      5-min Rain = 0
KST1 140105Z 21011KT 09/M01 A2995 RMK A01 T00871010  RH  051%=      5-min Rain = 0
KST1 140110Z 22011KT 08/M01 A2995 RMK A01 T00821010  RH  053%=      5-min Rain = 0
KST1 140115Z 21010KT 08/M01 A2995 RMK A01 T00791010  RH  054%=      5-min Rain = 0
KST1 140120Z 21011KT 08/M01 A2995 RMK A01 T00791011  RH  054%=      5-min Rain = 0
KST1 140125Z 22011KT 08/M01 A2995 RMK A01 T00781012  RH  053%=      5-min Rain = 0
KST1 140130Z 22011KT 08/M01 A2995 RMK A01 T00771013  RH  053%=      5-min Rain = 0
KST1 140135Z 22010KT 08/M01 A2995 RMK A01 T00761014  RH  054%=      5-min Rain = 0
KST1 140140Z 22011KT 07/M02 A2995 RMK A01 T00741015  RH  054%=      5-min Rain = 0
KST1 140145Z 22010KT 07/M02 A2995 RMK A01 T00731016  RH  054%=      5-min Rain = 0
KST1 140150Z 22010KT 07/M02 A2995 RMK A01 T00731017  RH  053%=      5-min Rain = 0
KST1 140155Z 22010KT 07/M02 A2995 RMK A01 T00701017  RH  055%=      5-min Rain = 0
KST1 140200Z 22010KT 07/M02 A2995 RMK A01 T00721018  RH  053%=      5-min Rain = 0
KST1 140205Z 22011KT 08/M02 A2994 RMK A01 T00751021  RH  051%=      5-min Rain = 0
KST1 140210Z 22011KT 07/M02 A2994 RMK A01 T00731020  RH  052%=      5-min Rain = 0
KST1 140215Z 23010KT 07/M02 A2995 RMK A01 T00711020  RH  053%=      5-min Rain = 0
KST1 140220Z 23010KT 07/M02 A2995 RMK A01 T00651018  RH  056%=      5-min Rain = 0
KST1 140225Z 23010KT 06/M02 A2995 RMK A01 T00641020  RH  056%=      5-min Rain = 0
KST1 140230Z 23010KT 07/M02 A2995 RMK A01 T00671021  RH  054%=      5-min Rain = 0
KST1 140235Z 24009KT 06/M02 A2995 RMK A01 T00641022  RH  055%=      5-min Rain = 0
KST1 140240Z 25011KT 06/M02 A2995 RMK A01 T00641023  RH  054%=      5-min Rain = 0
KST1 140245Z 24011KT 07/M03 A2995 RMK A01 T00711025  RH  051%=      5-min Rain = 0
KST1 140250Z 24012KT 07/M03 A2995 RMK A01 T00741028  RH  049%=      5-min Rain = 0
KST1 140255Z 25011KT 08/M03 A2995 RMK A01 T00751030  RH  048%=      5-min Rain = 0
KST1 140300Z 25011KT 08/M03 A2995 RMK A01 T00751030  RH  048%=      5-min Rain = 0
KST1 140305Z 25011KT 08/M03 A2995 RMK A01 T00761033  RH  046%=      5-min Rain = 0
KST1 140310Z 25010KT 08/M03 A2995 RMK A01 T00761033  RH  046%=      5-min Rain = 0
KST1 140315Z 25010KT 07/M03 A2995 RMK A01 T00731032  RH  048%=      5-min Rain = 0
KST1 140320Z 25009KT 07/M03 A2995 RMK A01 T00691030  RH  050%=      5-min Rain = 0
KST1 140325Z 24011KT 08/M04 A2995 RMK A01 T00781039  RH  044%=      5-min Rain = 0
KST1 140330Z 24013KT 09/M04 A2995 RMK A01 T00881044  RH  040%=      5-min Rain = 0
KST1 140335Z 24011KT 09/M04 A2994 RMK A01 T00871041  RH  041%=      5-min Rain = 0
KST1 140340Z 23013KT 08/M04 A2994 RMK A01 T00821039  RH  043%=      5-min Rain = 0
KST1 140345Z 23012KT 07/M03 A2995 RMK A01 T00721033  RH  048%=      5-min Rain = 0
KST1 140350Z 23011KT 07/M03 A2995 RMK A01 T00681034  RH  049%=      5-min Rain = 0
KST1 140355Z 23010KT 06/M03 A2995 RMK A01 T00631031  RH  051%=      5-min Rain = 0
KST1 140400Z 23010KT 06/M03 A2994 RMK A01 T00601031  RH  053%=      5-min Rain = 0
KST1 140405Z 23009KT 06/M03 A2994 RMK A01 T00571030  RH  054%=      5-min Rain = 0
KST1 140410Z 23009KT 06/M03 A2994 RMK A01 T00561032  RH  054%=      5-min Rain = 0
KST1 140415Z 23010KT 06/M04 A2994 RMK A01 T00591035  RH  051%=      5-min Rain = 0
KST1 140420Z 24010KT 06/M04 A2994 RMK A01 T00621038  RH  049%=      5-min Rain = 0
KST1 140425Z 24010KT 06/M04 A2993 RMK A01 T00621037  RH  049%=      5-min Rain = 0
KST1 140430Z 24010KT 06/M04 A2993 RMK A01 T00601037  RH  050%=      5-min Rain = 0
KST1 140435Z 23011KT 06/M04 A2993 RMK A01 T00601037  RH  051%=      5-min Rain = 0
KST1 140440Z 23010KT 06/M04 A2993 RMK A01 T00571036  RH  052%=      5-min Rain = 0
KST1 140445Z 23009KT 05/M04 A2993 RMK A01 T00511035  RH  054%=      5-min Rain = 0
KST1 140450Z 23009KT 05/M03 A2993 RMK A01 T00481034  RH  056%=      5-min Rain = 0
KST1 140455Z 22010KT 04/M03 A2993 RMK A01 T00441033  RH  058%=      5-min Rain = 0
KST1 140500Z 21008KT 04/M03 A2993 RMK A01 T00421034  RH  059%=      5-min Rain = 0
KST1 140505Z 22009KT 05/M04 A2992 RMK A01 T00471035  RH  056%=      5-min Rain = 0
KST1 140510Z 23011KT 05/M04 A2992 RMK A01 T00531037  RH  053%=      5-min Rain = 0
KST1 140515Z 22008KT 05/M03 A2992 RMK A01 T00481034  RH  056%=      5-min Rain = 0
KST1 140520Z 22008KT 04/M03 A2992 RMK A01 T00411033  RH  059%=      5-min Rain = 0
KST1 140525Z 22011KT 05/M03 A2992 RMK A01 T00461034  RH  057%=      5-min Rain = 0
KST1 140530Z 22011KT 06/M04 A2992 RMK A01 T00551036  RH  053%=      5-min Rain = 0
KST1 140535Z 22009KT 05/M03 A2992 RMK A01 T00491033  RH  056%=      5-min Rain = 0
KST1 140540Z 21007KT 04/M03 A2992 RMK A01 T00421032  RH  059%=      5-min Rain = 0
KST1 140545Z 21007KT 05/M04 A2992 RMK A01 T00461036  RH  056%=      5-min Rain = 0
KST1 140550Z 20008KT 05/M04 A2992 RMK A01 T00481037  RH  054%=      5-min Rain = 0
KST1 140555Z 19007KT 04/M03 A2992 RMK A01 T00351034  RH  062%=      5-min Rain = 0

Page generated in 0.012 seconds.